Culpeper, Arkansas
Current Conditions -  °F | °C
As of 10:53 AM on Friday 31 Oct 2014 (Local Time) from KRUE Reporting Station
Scattered Clouds Scattered Clouds  
Wind Chill: 58°   Ceiling: Unl
Heat Index: 58°   Visibility: 10mi
Dew Point: 40°   Wind: 16mph
Humidity: 51%   Direction: 330°NNW
Pressure: 30.26"   Gusts: 22mph
Location:  35.6269°N, 92.5508°W
Report Text: KRUE 311553Z AUTO 33014G19KT 10SM SCT041 14/04 A3026 RMK AO2 SLP242 T01440044
Loading
Personal Weather Stations






























Interactive Weather Map
Tropical Storm Tracking
New forecast layout! Learn more

10-Day Weather Forecast

Advertisements
Track Severe Weather on mobile